sensor_id;sensor_type;location;lat;lon;timestamp;temperature;humidity
38788;DHT22;24536;45.488;12.238;2023-04-28T00:00:43;16.60;72.30
38788;DHT22;24536;45.488;12.238;2023-04-28T00:03:09;16.50;72.70
38788;DHT22;24536;45.488;12.238;2023-04-28T00:05:35;16.50;72.80
38788;DHT22;24536;45.488;12.238;2023-04-28T00:08:01;16.50;72.60
38788;DHT22;24536;45.488;12.238;2023-04-28T00:10:28;16.50;72.90
38788;DHT22;24536;45.488;12.238;2023-04-28T00:12:53;16.40;73.30
38788;DHT22;24536;45.488;12.238;2023-04-28T00:15:19;16.40;73.70
38788;DHT22;24536;45.488;12.238;2023-04-28T00:17:45;16.40;74.00
38788;DHT22;24536;45.488;12.238;2023-04-28T00:20:11;16.40;74.20
38788;DHT22;24536;45.488;12.238;2023-04-28T00:22:36;16.40;74.50
38788;DHT22;24536;45.488;12.238;2023-04-28T00:25:02;16.40;74.00
38788;DHT22;24536;45.488;12.238;2023-04-28T00:27:29;16.40;73.80
38788;DHT22;24536;45.488;12.238;2023-04-28T00:29:54;16.40;74.20
38788;DHT22;24536;45.488;12.238;2023-04-28T00:32:20;16.30;74.30
38788;DHT22;24536;45.488;12.238;2023-04-28T00:34:46;16.30;74.30
38788;DHT22;24536;45.488;12.238;2023-04-28T00:37:12;16.30;74.20
38788;DHT22;24536;45.488;12.238;2023-04-28T00:39:37;16.30;74.30
38788;DHT22;24536;45.488;12.238;2023-04-28T00:42:03;16.20;74.30
38788;DHT22;24536;45.488;12.238;2023-04-28T00:44:29;16.20;74.10
38788;DHT22;24536;45.488;12.238;2023-04-28T00:46:55;16.20;74.10
38788;DHT22;24536;45.488;12.238;2023-04-28T00:49:22;16.20;74.40
38788;DHT22;24536;45.488;12.238;2023-04-28T00:51:47;16.20;74.60
38788;DHT22;24536;45.488;12.238;2023-04-28T00:54:13;16.20;74.70
38788;DHT22;24536;45.488;12.238;2023-04-28T00:56:39;16.10;74.90
38788;DHT22;24536;45.488;12.238;2023-04-28T00:59:05;16.10;75.20
38788;DHT22;24536;45.488;12.238;2023-04-28T01:01:31;16.10;75.30
38788;DHT22;24536;45.488;12.238;2023-04-28T01:03:57;16.10;75.40
38788;DHT22;24536;45.488;12.238;2023-04-28T01:06:23;16.10;75.60
38788;DHT22;24536;45.488;12.238;2023-04-28T01:08:49;16.10;75.60
38788;DHT22;24536;45.488;12.238;2023-04-28T01:11:16;16.10;75.60
38788;DHT22;24536;45.488;12.238;2023-04-28T01:13:41;16.00;75.20
38788;DHT22;24536;45.488;12.238;2023-04-28T01:16:07;16.00;75.10
38788;DHT22;24536;45.488;12.238;2023-04-28T01:18:33;16.00;75.20
38788;DHT22;24536;45.488;12.238;2023-04-28T01:20:59;16.00;75.50
38788;DHT22;24536;45.488;12.238;2023-04-28T01:23:25;16.00;75.40
38788;DHT22;24536;45.488;12.238;2023-04-28T01:25:51;16.00;75.30
38788;DHT22;24536;45.488;12.238;2023-04-28T01:28:16;16.00;75.30
38788;DHT22;24536;45.488;12.238;2023-04-28T01:30:42;16.00;75.20
38788;DHT22;24536;45.488;12.238;2023-04-28T01:33:08;16.00;75.20
38788;DHT22;24536;45.488;12.238;2023-04-28T01:35:34;15.90;75.20
38788;DHT22;24536;45.488;12.238;2023-04-28T01:38:00;15.90;75.20
38788;DHT22;24536;45.488;12.238;2023-04-28T01:40:25;15.90;75.30
38788;DHT22;24536;45.488;12.238;2023-04-28T01:42:51;15.90;75.50
38788;DHT22;24536;45.488;12.238;2023-04-28T01:45:17;15.90;75.60
38788;DHT22;24536;45.488;12.238;2023-04-28T01:47:42;15.90;75.50
38788;DHT22;24536;45.488;12.238;2023-04-28T01:50:08;15.90;75.50
38788;DHT22;24536;45.488;12.238;2023-04-28T01:52:34;15.90;75.40
38788;DHT22;24536;45.488;12.238;2023-04-28T01:55:00;15.90;75.50
38788;DHT22;24536;45.488;12.238;2023-04-28T01:57:26;15.90;75.40
38788;DHT22;24536;45.488;12.238;2023-04-28T01:59:53;15.90;75.10
38788;DHT22;24536;45.488;12.238;2023-04-28T02:02:19;15.90;75.10
38788;DHT22;24536;45.488;12.238;2023-04-28T02:04:45;15.90;75.10
38788;DHT22;24536;45.488;12.238;2023-04-28T02:07:11;15.80;75.30
38788;DHT22;24536;45.488;12.238;2023-04-28T02:09:36;15.80;75.80
38788;DHT22;24536;45.488;12.238;2023-04-28T02:12:02;15.70;75.20
38788;DHT22;24536;45.488;12.238;2023-04-28T02:14:31;15.70;75.10
38788;DHT22;24536;45.488;12.238;2023-04-28T02:16:57;15.70;75.00
38788;DHT22;24536;45.488;12.238;2023-04-28T02:19:23;15.70;75.40
38788;DHT22;24536;45.488;12.238;2023-04-28T02:21:54;15.60;75.30
38788;DHT22;24536;45.488;12.238;2023-04-28T02:24:22;15.60;75.40
38788;DHT22;24536;45.488;12.238;2023-04-28T02:26:48;15.60;75.30
38788;DHT22;24536;45.488;12.238;2023-04-28T02:29:13;15.60;75.40
38788;DHT22;24536;45.488;12.238;2023-04-28T02:31:39;15.60;75.60
38788;DHT22;24536;45.488;12.238;2023-04-28T02:34:05;15.60;75.50
38788;DHT22;24536;45.488;12.238;2023-04-28T02:36:31;15.60;75.40
38788;DHT22;24536;45.488;12.238;2023-04-28T02:38:57;15.60;75.80
38788;DHT22;24536;45.488;12.238;2023-04-28T02:41:23;15.60;75.90
38788;DHT22;24536;45.488;12.238;2023-04-28T02:43:49;15.50;75.80
38788;DHT22;24536;45.488;12.238;2023-04-28T02:46:14;15.60;75.60
38788;DHT22;24536;45.488;12.238;2023-04-28T02:48:40;15.50;75.60
38788;DHT22;24536;45.488;12.238;2023-04-28T02:51:06;15.50;75.90
38788;DHT22;24536;45.488;12.238;2023-04-28T02:53:32;15.50;75.40
38788;DHT22;24536;45.488;12.238;2023-04-28T02:55:57;15.50;74.60
38788;DHT22;24536;45.488;12.238;2023-04-28T02:58:23;15.50;74.20
38788;DHT22;24536;45.488;12.238;2023-04-28T03:00:49;15.50;73.80
38788;DHT22;24536;45.488;12.238;2023-04-28T03:03:15;15.50;73.40
38788;DHT22;24536;45.488;12.238;2023-04-28T03:05:41;15.50;73.20
38788;DHT22;24536;45.488;12.238;2023-04-28T03:08:06;15.50;72.80
38788;DHT22;24536;45.488;12.238;2023-04-28T03:10:32;15.50;72.70
38788;DHT22;24536;45.488;12.238;2023-04-28T03:12:58;15.50;72.50
38788;DHT22;24536;45.488;12.238;2023-04-28T03:15:23;15.50;72.20
38788;DHT22;24536;45.488;12.238;2023-04-28T03:17:49;15.50;72.40
38788;DHT22;24536;45.488;12.238;2023-04-28T03:20:15;15.50;72.20
38788;DHT22;24536;45.488;12.238;2023-04-28T03:22:41;15.50;72.10
38788;DHT22;24536;45.488;12.238;2023-04-28T03:25:07;15.50;71.90
38788;DHT22;24536;45.488;12.238;2023-04-28T03:27:33;15.50;71.70
38788;DHT22;24536;45.488;12.238;2023-04-28T03:29:58;15.50;71.40
38788;DHT22;24536;45.488;12.238;2023-04-28T03:32:24;15.50;71.10
38788;DHT22;24536;45.488;12.238;2023-04-28T03:34:49;15.50;70.90
38788;DHT22;24536;45.488;12.238;2023-04-28T03:37:15;15.50;71.00
38788;DHT22;24536;45.488;12.238;2023-04-28T03:39:41;15.50;70.80
38788;DHT22;24536;45.488;12.238;2023-04-28T03:42:06;15.50;70.80
38788;DHT22;24536;45.488;12.238;2023-04-28T03:44:32;15.50;70.70
38788;DHT22;24536;45.488;12.238;2023-04-28T03:46:58;15.40;70.70
38788;DHT22;24536;45.488;12.238;2023-04-28T03:49:24;15.40;70.30
38788;DHT22;24536;45.488;12.238;2023-04-28T03:51:50;15.40;70.50
38788;DHT22;24536;45.488;12.238;2023-04-28T03:54:16;15.30;70.60
38788;DHT22;24536;45.488;12.238;2023-04-28T03:56:42;15.30;70.90
38788;DHT22;24536;45.488;12.238;2023-04-28T03:59:08;15.20;70.90
38788;DHT22;24536;45.488;12.238;2023-04-28T04:01:36;15.20;71.10
38788;DHT22;24536;45.488;12.238;2023-04-28T04:04:02;15.10;71.20
38788;DHT22;24536;45.488;12.238;2023-04-28T04:06:28;15.10;71.30
38788;DHT22;24536;45.488;12.238;2023-04-28T04:08:53;15.00;71.40
38788;DHT22;24536;45.488;12.238;2023-04-28T04:11:20;15.00;71.70
38788;DHT22;24536;45.488;12.238;2023-04-28T04:13:46;14.90;71.90
38788;DHT22;24536;45.488;12.238;2023-04-28T04:16:12;14.90;72.10
38788;DHT22;24536;45.488;12.238;2023-04-28T04:18:40;14.80;72.30
38788;DHT22;24536;45.488;12.238;2023-04-28T04:21:06;14.80;72.40
38788;DHT22;24536;45.488;12.238;2023-04-28T04:23:31;14.80;72.60
38788;DHT22;24536;45.488;12.238;2023-04-28T04:25:57;14.80;72.70
38788;DHT22;24536;45.488;12.238;2023-04-28T04:28:23;14.70;72.70
38788;DHT22;24536;45.488;12.238;2023-04-28T04:30:48;14.70;72.90
38788;DHT22;24536;45.488;12.238;2023-04-28T04:33:14;14.70;72.80
38788;DHT22;24536;45.488;12.238;2023-04-28T04:35:40;14.70;73.00
38788;DHT22;24536;45.488;12.238;2023-04-28T04:38:08;14.70;73.00
38788;DHT22;24536;45.488;12.238;2023-04-28T04:40:34;14.60;73.20
38788;DHT22;24536;45.488;12.238;2023-04-28T04:43:00;14.60;73.10
38788;DHT22;24536;45.488;12.238;2023-04-28T04:45:26;14.60;73.30
38788;DHT22;24536;45.488;12.238;2023-04-28T04:47:52;14.60;73.30
38788;DHT22;24536;45.488;12.238;2023-04-28T04:50:17;14.60;73.40
38788;DHT22;24536;45.488;12.238;2023-04-28T04:52:43;14.60;73.60
38788;DHT22;24536;45.488;12.238;2023-04-28T04:55:09;14.60;73.60
38788;DHT22;24536;45.488;12.238;2023-04-28T04:57:36;14.70;74.00
38788;DHT22;24536;45.488;12.238;2023-04-28T05:00:02;14.70;73.90
38788;DHT22;24536;45.488;12.238;2023-04-28T05:02:29;14.80;73.70
38788;DHT22;24536;45.488;12.238;2023-04-28T05:04:54;14.80;73.50
38788;DHT22;24536;45.488;12.238;2023-04-28T05:07:20;14.80;73.60
38788;DHT22;24536;45.488;12.238;2023-04-28T05:09:46;14.80;73.50
38788;DHT22;24536;45.488;12.238;2023-04-28T05:12:11;14.80;73.40
38788;DHT22;24536;45.488;12.238;2023-04-28T05:14:37;14.80;73.50
38788;DHT22;24536;45.488;12.238;2023-04-28T05:17:23;14.80;73.60
38788;DHT22;24536;45.488;12.238;2023-04-28T05:19:49;14.90;73.60
38788;DHT22;24536;45.488;12.238;2023-04-28T05:22:15;14.80;73.50
38788;DHT22;24536;45.488;12.238;2023-04-28T05:24:41;14.80;73.70
38788;DHT22;24536;45.488;12.238;2023-04-28T05:27:06;14.80;73.60
38788;DHT22;24536;45.488;12.238;2023-04-28T05:29:32;14.80;73.70
38788;DHT22;24536;45.488;12.238;2023-04-28T05:31:57;14.80;73.90
38788;DHT22;24536;45.488;12.238;2023-04-28T05:34:23;14.90;74.10
38788;DHT22;24536;45.488;12.238;2023-04-28T05:36:50;14.90;74.10
38788;DHT22;24536;45.488;12.238;2023-04-28T05:39:16;14.90;74.20
38788;DHT22;24536;45.488;12.238;2023-04-28T05:41:42;14.90;74.30
38788;DHT22;24536;45.488;12.238;2023-04-28T05:44:07;15.00;74.20
38788;DHT22;24536;45.488;12.238;2023-04-28T05:46:33;15.10;74.40
38788;DHT22;24536;45.488;12.238;2023-04-28T05:48:59;15.20;74.20
38788;DHT22;24536;45.488;12.238;2023-04-28T05:51:25;15.20;73.90
38788;DHT22;24536;45.488;12.238;2023-04-28T05:53:54;15.30;73.90
38788;DHT22;24536;45.488;12.238;2023-04-28T05:56:29;15.40;73.80
38788;DHT22;24536;45.488;12.238;2023-04-28T05:58:55;15.50;74.00
38788;DHT22;24536;45.488;12.238;2023-04-28T06:01:21;15.60;73.50
38788;DHT22;24536;45.488;12.238;2023-04-28T06:03:47;15.60;73.20
38788;DHT22;24536;45.488;12.238;2023-04-28T06:06:13;15.60;73.30
38788;DHT22;24536;45.488;12.238;2023-04-28T06:08:39;15.70;73.30
38788;DHT22;24536;45.488;12.238;2023-04-28T06:11:05;15.70;73.20
38788;DHT22;24536;45.488;12.238;2023-04-28T06:13:31;15.70;73.40
38788;DHT22;24536;45.488;12.238;2023-04-28T06:15:56;15.70;73.40
38788;DHT22;24536;45.488;12.238;2023-04-28T06:18:22;15.70;73.40
38788;DHT22;24536;45.488;12.238;2023-04-28T06:20:48;15.70;73.60
38788;DHT22;24536;45.488;12.238;2023-04-28T06:23:14;15.70;73.80
38788;DHT22;24536;45.488;12.238;2023-04-28T06:25:40;15.70;74.00
38788;DHT22;24536;45.488;12.238;2023-04-28T06:28:06;15.70;74.00
38788;DHT22;24536;45.488;12.238;2023-04-28T06:30:33;15.80;74.10
38788;DHT22;24536;45.488;12.238;2023-04-28T06:32:59;15.80;74.20
38788;DHT22;24536;45.488;12.238;2023-04-28T06:35:24;15.80;74.30
38788;DHT22;24536;45.488;12.238;2023-04-28T06:37:50;15.80;74.50
38788;DHT22;24536;45.488;12.238;2023-04-28T06:40:16;15.80;74.80
38788;DHT22;24536;45.488;12.238;2023-04-28T06:42:41;15.90;75.10
38788;DHT22;24536;45.488;12.238;2023-04-28T06:45:08;15.80;75.10
38788;DHT22;24536;45.488;12.238;2023-04-28T06:47:34;15.90;75.20
38788;DHT22;24536;45.488;12.238;2023-04-28T06:50:00;15.90;75.30
38788;DHT22;24536;45.488;12.238;2023-04-28T06:52:26;15.90;75.20
38788;DHT22;24536;45.488;12.238;2023-04-28T06:54:54;16.00;75.10
38788;DHT22;24536;45.488;12.238;2023-04-28T06:57:19;16.00;75.20
38788;DHT22;24536;45.488;12.238;2023-04-28T06:59:45;16.10;75.30
38788;DHT22;24536;45.488;12.238;2023-04-28T07:02:11;16.10;75.30
38788;DHT22;24536;45.488;12.238;2023-04-28T07:04:37;16.20;75.10
38788;DHT22;24536;45.488;12.238;2023-04-28T07:07:02;16.30;75.00
38788;DHT22;24536;45.488;12.238;2023-04-28T07:09:35;16.30;75.20
38788;DHT22;24536;45.488;12.238;2023-04-28T07:12:02;16.30;75.30
38788;DHT22;24536;45.488;12.238;2023-04-28T07:14:29;16.40;75.40
38788;DHT22;24536;45.488;12.238;2023-04-28T07:16:54;16.50;75.20
38788;DHT22;24536;45.488;12.238;2023-04-28T07:19:20;16.50;75.20
38788;DHT22;24536;45.488;12.238;2023-04-28T07:21:46;16.60;75.20
38788;DHT22;24536;45.488;12.238;2023-04-28T07:24:11;16.70;75.10
38788;DHT22;24536;45.488;12.238;2023-04-28T07:26:37;16.70;74.90
38788;DHT22;24536;45.488;12.238;2023-04-28T07:29:03;16.80;75.00
38788;DHT22;24536;45.488;12.238;2023-04-28T07:31:28;16.90;75.20
38788;DHT22;24536;45.488;12.238;2023-04-28T07:33:54;16.90;74.90
38788;DHT22;24536;45.488;12.238;2023-04-28T07:36:20;17.00;75.00
38788;DHT22;24536;45.488;12.238;2023-04-28T07:38:46;17.00;75.10
38788;DHT22;24536;45.488;12.238;2023-04-28T07:41:12;17.10;75.20
38788;DHT22;24536;45.488;12.238;2023-04-28T07:43:39;17.10;75.80
38788;DHT22;24536;45.488;12.238;2023-04-28T07:46:06;17.20;75.30
38788;DHT22;24536;45.488;12.238;2023-04-28T07:48:33;17.30;75.40
38788;DHT22;24536;45.488;12.238;2023-04-28T07:50:58;17.40;75.40
38788;DHT22;24536;45.488;12.238;2023-04-28T07:53:24;17.40;75.30
38788;DHT22;24536;45.488;12.238;2023-04-28T07:55:50;17.40;75.20
38788;DHT22;24536;45.488;12.238;2023-04-28T07:58:16;17.40;74.60
38788;DHT22;24536;45.488;12.238;2023-04-28T08:00:41;17.50;74.80
38788;DHT22;24536;45.488;12.238;2023-04-28T08:03:07;17.50;74.50
38788;DHT22;24536;45.488;12.238;2023-04-28T08:05:33;17.50;74.50
38788;DHT22;24536;45.488;12.238;2023-04-28T08:07:58;17.50;74.70
38788;DHT22;24536;45.488;12.238;2023-04-28T08:10:24;17.60;74.70
38788;DHT22;24536;45.488;12.238;2023-04-28T08:12:51;17.70;74.50
38788;DHT22;24536;45.488;12.238;2023-04-28T08:15:17;17.70;74.20
38788;DHT22;24536;45.488;12.238;2023-04-28T08:17:42;17.80;74.00
38788;DHT22;24536;45.488;12.238;2023-04-28T08:20:08;17.80;73.60
38788;DHT22;24536;45.488;12.238;2023-04-28T08:22:34;17.90;73.20
38788;DHT22;24536;45.488;12.238;2023-04-28T08:25:00;17.90;72.70
38788;DHT22;24536;45.488;12.238;2023-04-28T08:27:26;18.10;72.70
38788;DHT22;24536;45.488;12.238;2023-04-28T08:29:52;18.20;72.60
38788;DHT22;24536;45.488;12.238;2023-04-28T08:32:18;18.30;71.70
38788;DHT22;24536;45.488;12.238;2023-04-28T08:34:44;18.40;70.80
38788;DHT22;24536;45.488;12.238;2023-04-28T08:37:09;18.50;70.30
38788;DHT22;24536;45.488;12.238;2023-04-28T08:39:35;18.50;70.80
38788;DHT22;24536;45.488;12.238;2023-04-28T08:42:04;18.60;70.20
38788;DHT22;24536;45.488;12.238;2023-04-28T08:44:37;18.70;69.50
38788;DHT22;24536;45.488;12.238;2023-04-28T08:47:13;18.90;69.40
38788;DHT22;24536;45.488;12.238;2023-04-28T08:49:39;19.00;69.30
38788;DHT22;24536;45.488;12.238;2023-04-28T08:52:16;19.00;68.30
38788;DHT22;24536;45.488;12.238;2023-04-28T08:54:42;19.10;67.30
38788;DHT22;24536;45.488;12.238;2023-04-28T08:57:09;19.10;67.40
38788;DHT22;24536;45.488;12.238;2023-04-28T08:59:38;19.20;66.10
38788;DHT22;24536;45.488;12.238;2023-04-28T09:02:04;19.20;66.50
38788;DHT22;24536;45.488;12.238;2023-04-28T09:04:30;19.20;65.60
38788;DHT22;24536;45.488;12.238;2023-04-28T09:06:56;19.30;64.80
38788;DHT22;24536;45.488;12.238;2023-04-28T09:09:29;19.30;64.80
38788;DHT22;24536;45.488;12.238;2023-04-28T09:11:59;19.30;64.60
38788;DHT22;24536;45.488;12.238;2023-04-28T09:14:26;19.40;65.00
38788;DHT22;24536;45.488;12.238;2023-04-28T09:16:52;19.40;64.60
38788;DHT22;24536;45.488;12.238;2023-04-28T09:19:18;19.40;64.60
38788;DHT22;24536;45.488;12.238;2023-04-28T09:21:55;19.50;64.80
38788;DHT22;24536;45.488;12.238;2023-04-28T09:24:38;19.50;64.10
38788;DHT22;24536;45.488;12.238;2023-04-28T09:27:06;19.50;64.10
38788;DHT22;24536;45.488;12.238;2023-04-28T09:29:35;19.50;64.20
38788;DHT22;24536;45.488;12.238;2023-04-28T09:32:15;19.60;64.30
38788;DHT22;24536;45.488;12.238;2023-04-28T09:34:46;19.70;64.50
38788;DHT22;24536;45.488;12.238;2023-04-28T09:37:19;19.70;63.80
38788;DHT22;24536;45.488;12.238;2023-04-28T09:39:47;19.80;63.10
38788;DHT22;24536;45.488;12.238;2023-04-28T09:47:51;20.10;60.90
38788;DHT22;24536;45.488;12.238;2023-04-28T09:50:17;20.20;61.00
38788;DHT22;24536;45.488;12.238;2023-04-28T09:52:45;20.30;61.00
38788;DHT22;24536;45.488;12.238;2023-04-28T09:55:14;20.40;60.10
38788;DHT22;24536;45.488;12.238;2023-04-28T09:57:39;20.60;60.60
38788;DHT22;24536;45.488;12.238;2023-04-28T10:00:07;20.80;60.30
38788;DHT22;24536;45.488;12.238;2023-04-28T10:02:35;20.90;60.30
38788;DHT22;24536;45.488;12.238;2023-04-28T10:05:01;21.10;60.60
38788;DHT22;24536;45.488;12.238;2023-04-28T10:07:27;21.20;60.40
38788;DHT22;24536;45.488;12.238;2023-04-28T10:09:55;21.40;59.40
38788;DHT22;24536;45.488;12.238;2023-04-28T10:12:23;21.50;58.00
38788;DHT22;24536;45.488;12.238;2023-04-28T10:14:49;21.50;54.30
38788;DHT22;24536;45.488;12.238;2023-04-28T10:17:19;21.60;55.70
38788;DHT22;24536;45.488;12.238;2023-04-28T10:19:47;21.80;54.70
38788;DHT22;24536;45.488;12.238;2023-04-28T10:27:41;22.40;54.40
38788;DHT22;24536;45.488;12.238;2023-04-28T10:30:15;22.60;53.40
38788;DHT22;24536;45.488;12.238;2023-04-28T10:32:42;22.80;52.00
38788;DHT22;24536;45.488;12.238;2023-04-28T10:38:11;23.00;47.60
38788;DHT22;24536;45.488;12.238;2023-04-28T10:40:41;23.10;47.50
38788;DHT22;24536;45.488;12.238;2023-04-28T10:43:09;23.20;48.20
38788;DHT22;24536;45.488;12.238;2023-04-28T10:58:35;23.70;43.30
38788;DHT22;24536;45.488;12.238;2023-04-28T11:03:57;23.90;42.60
38788;DHT22;24536;45.488;12.238;2023-04-28T11:11:41;24.20;46.60
38788;DHT22;24536;45.488;12.238;2023-04-28T11:17:01;24.30;47.50
38788;DHT22;24536;45.488;12.238;2023-04-28T11:21:58;24.40;48.90
38788;DHT22;24536;45.488;12.238;2023-04-28T11:24:25;24.40;49.60
38788;DHT22;24536;45.488;12.238;2023-04-28T11:26:52;24.50;49.30
38788;DHT22;24536;45.488;12.238;2023-04-28T11:29:33;24.60;48.90
38788;DHT22;24536;45.488;12.238;2023-04-28T11:32:09;24.80;49.90
38788;DHT22;24536;45.488;12.238;2023-04-28T11:34:36;24.90;50.30
38788;DHT22;24536;45.488;12.238;2023-04-28T11:37:02;25.10;49.60
38788;DHT22;24536;45.488;12.238;2023-04-28T11:39:31;25.20;49.20
38788;DHT22;24536;45.488;12.238;2023-04-28T11:41:59;25.20;49.20
38788;DHT22;24536;45.488;12.238;2023-04-28T11:44:29;25.00;48.60
38788;DHT22;24536;45.488;12.238;2023-04-28T11:47:00;25.00;48.30
38788;DHT22;24536;45.488;12.238;2023-04-28T11:49:45;25.00;48.10
38788;DHT22;24536;45.488;12.238;2023-04-28T11:52:12;25.00;47.40
38788;DHT22;24536;45.488;12.238;2023-04-28T11:54:38;25.10;47.40
38788;DHT22;24536;45.488;12.238;2023-04-28T11:57:19;25.20;46.90
38788;DHT22;24536;45.488;12.238;2023-04-28T11:59:45;25.30;46.90
38788;DHT22;24536;45.488;12.238;2023-04-28T12:02:12;25.40;47.00
38788;DHT22;24536;45.488;12.238;2023-04-28T12:04:38;25.40;46.60
38788;DHT22;24536;45.488;12.238;2023-04-28T12:07:06;25.50;45.40
38788;DHT22;24536;45.488;12.238;2023-04-28T12:09:34;25.50;44.90
38788;DHT22;24536;45.488;12.238;2023-04-28T12:12:06;25.60;45.20
38788;DHT22;24536;45.488;12.238;2023-04-28T12:14:52;25.70;44.40
38788;DHT22;24536;45.488;12.238;2023-04-28T12:17:31;25.70;44.30
38788;DHT22;24536;45.488;12.238;2023-04-28T12:19:59;25.80;44.60
38788;DHT22;24536;45.488;12.238;2023-04-28T12:22:25;25.90;44.50
38788;DHT22;24536;45.488;12.238;2023-04-28T12:25:11;26.00;44.30
38788;DHT22;24536;45.488;12.238;2023-04-28T12:27:38;26.10;43.10
38788;DHT22;24536;45.488;12.238;2023-04-28T12:32:45;26.30;42.40
38788;DHT22;24536;45.488;12.238;2023-04-28T12:35:11;26.30;42.00
38788;DHT22;24536;45.488;12.238;2023-04-28T12:37:37;26.40;41.70
38788;DHT22;24536;45.488;12.238;2023-04-28T12:40:05;26.30;42.00
38788;DHT22;24536;45.488;12.238;2023-04-28T12:42:31;26.30;42.20
38788;DHT22;24536;45.488;12.238;2023-04-28T12:44:57;26.50;41.80
38788;DHT22;24536;45.488;12.238;2023-04-28T12:47:23;26.60;41.00
38788;DHT22;24536;45.488;12.238;2023-04-28T12:49:49;26.70;41.80
38788;DHT22;24536;45.488;12.238;2023-04-28T12:52:20;26.80;41.20
38788;DHT22;24536;45.488;12.238;2023-04-28T12:54:47;26.90;40.50
38788;DHT22;24536;45.488;12.238;2023-04-28T12:57:16;27.20;39.10
38788;DHT22;24536;45.488;12.238;2023-04-28T12:59:43;27.30;38.20
38788;DHT22;24536;45.488;12.238;2023-04-28T13:02:09;27.30;38.50
38788;DHT22;24536;45.488;12.238;2023-04-28T13:04:35;27.20;37.50
38788;DHT22;24536;45.488;12.238;2023-04-28T13:07:01;27.20;36.70
38788;DHT22;24536;45.488;12.238;2023-04-28T13:09:27;27.20;34.60
38788;DHT22;24536;45.488;12.238;2023-04-28T13:11:52;27.00;34.70
38788;DHT22;24536;45.488;12.238;2023-04-28T13:14:21;27.00;35.10
38788;DHT22;24536;45.488;12.238;2023-04-28T13:16:47;26.90;34.80
38788;DHT22;24536;45.488;12.238;2023-04-28T13:19:13;26.80;35.10
38788;DHT22;24536;45.488;12.238;2023-04-28T13:21:39;26.70;34.90
38788;DHT22;24536;45.488;12.238;2023-04-28T13:24:07;26.70;35.00
38788;DHT22;24536;45.488;12.238;2023-04-28T13:26:33;26.60;35.10
38788;DHT22;24536;45.488;12.238;2023-04-28T13:28:59;26.40;35.20
38788;DHT22;24536;45.488;12.238;2023-04-28T13:31:25;26.40;34.70
38788;DHT22;24536;45.488;12.238;2023-04-28T13:33:51;26.40;35.30
38788;DHT22;24536;45.488;12.238;2023-04-28T13:36:17;26.50;36.40
38788;DHT22;24536;45.488;12.238;2023-04-28T13:38:43;26.60;36.80
38788;DHT22;24536;45.488;12.238;2023-04-28T13:41:13;26.70;36.40
38788;DHT22;24536;45.488;12.238;2023-04-28T13:43:39;26.70;36.70
38788;DHT22;24536;45.488;12.238;2023-04-28T13:46:06;26.90;37.10
38788;DHT22;24536;45.488;12.238;2023-04-28T13:48:34;27.00;37.40
38788;DHT22;24536;45.488;12.238;2023-04-28T13:51:04;27.10;37.10
38788;DHT22;24536;45.488;12.238;2023-04-28T13:53:31;27.10;36.50
38788;DHT22;24536;45.488;12.238;2023-04-28T13:55:57;27.20;36.30
38788;DHT22;24536;45.488;12.238;2023-04-28T13:58:27;27.10;36.30
38788;DHT22;24536;45.488;12.238;2023-04-28T14:00:53;27.10;36.30
38788;DHT22;24536;45.488;12.238;2023-04-28T14:03:19;26.90;36.60
38788;DHT22;24536;45.488;12.238;2023-04-28T14:05:52;26.80;37.10
38788;DHT22;24536;45.488;12.238;2023-04-28T14:08:18;26.60;37.20
38788;DHT22;24536;45.488;12.238;2023-04-28T14:10:44;26.50;37.70
38788;DHT22;24536;45.488;12.238;2023-04-28T14:13:10;26.10;38.10
38788;DHT22;24536;45.488;12.238;2023-04-28T14:15:36;25.80;38.20
38788;DHT22;24536;45.488;12.238;2023-04-28T14:18:02;25.50;38.50
38788;DHT22;24536;45.488;12.238;2023-04-28T14:20:28;25.20;38.80
38788;DHT22;24536;45.488;12.238;2023-04-28T14:22:54;24.80;39.20
38788;DHT22;24536;45.488;12.238;2023-04-28T14:25:20;24.70;39.40
38788;DHT22;24536;45.488;12.238;2023-04-28T14:27:50;24.40;39.10
38788;DHT22;24536;45.488;12.238;2023-04-28T14:30:16;24.30;39.50
38788;DHT22;24536;45.488;12.238;2023-04-28T14:32:42;24.10;39.60
38788;DHT22;24536;45.488;12.238;2023-04-28T14:35:08;23.90;40.30
38788;DHT22;24536;45.488;12.238;2023-04-28T14:37:34;23.80;39.90
38788;DHT22;24536;45.488;12.238;2023-04-28T14:40:00;23.70;38.10
38788;DHT22;24536;45.488;12.238;2023-04-28T14:42:30;23.60;37.70
38788;DHT22;24536;45.488;12.238;2023-04-28T14:44:58;23.50;37.20
38788;DHT22;24536;45.488;12.238;2023-04-28T14:47:24;23.40;38.70
38788;DHT22;24536;45.488;12.238;2023-04-28T14:49:51;23.30;39.30
38788;DHT22;24536;45.488;12.238;2023-04-28T14:52:19;23.30;38.90
38788;DHT22;24536;45.488;12.238;2023-04-28T14:54:47;23.30;39.50
38788;DHT22;24536;45.488;12.238;2023-04-28T14:57:12;23.20;40.40
38788;DHT22;24536;45.488;12.238;2023-04-28T14:59:38;23.20;41.80
38788;DHT22;24536;45.488;12.238;2023-04-28T15:02:04;23.10;43.10
38788;DHT22;24536;45.488;12.238;2023-04-28T15:04:31;23.10;44.00
38788;DHT22;24536;45.488;12.238;2023-04-28T15:06:56;23.10;45.30
38788;DHT22;24536;45.488;12.238;2023-04-28T15:09:24;23.10;46.10
38788;DHT22;24536;45.488;12.238;2023-04-28T15:11:50;23.00;46.90
38788;DHT22;24536;45.488;12.238;2023-04-28T15:14:16;23.00;47.50
38788;DHT22;24536;45.488;12.238;2023-04-28T15:16:43;22.90;48.40
38788;DHT22;24536;45.488;12.238;2023-04-28T15:19:09;22.90;48.90
38788;DHT22;24536;45.488;12.238;2023-04-28T15:21:34;22.80;49.00
38788;DHT22;24536;45.488;12.238;2023-04-28T15:24:00;22.70;49.60
38788;DHT22;24536;45.488;12.238;2023-04-28T15:26:26;22.60;50.20
38788;DHT22;24536;45.488;12.238;2023-04-28T15:28:52;22.50;50.60
38788;DHT22;24536;45.488;12.238;2023-04-28T15:31:18;22.50;51.40
38788;DHT22;24536;45.488;12.238;2023-04-28T15:33:44;22.40;51.70
38788;DHT22;24536;45.488;12.238;2023-04-28T15:36:11;22.30;52.50
38788;DHT22;24536;45.488;12.238;2023-04-28T15:38:38;22.30;53.20
38788;DHT22;24536;45.488;12.238;2023-04-28T15:41:04;22.30;53.90
38788;DHT22;24536;45.488;12.238;2023-04-28T15:43:29;22.30;54.80
38788;DHT22;24536;45.488;12.238;2023-04-28T15:45:55;22.20;55.20
38788;DHT22;24536;45.488;12.238;2023-04-28T15:48:21;22.20;55.20
38788;DHT22;24536;45.488;12.238;2023-04-28T15:50:47;22.20;55.40
38788;DHT22;24536;45.488;12.238;2023-04-28T15:53:13;22.20;55.40
38788;DHT22;24536;45.488;12.238;2023-04-28T15:55:38;22.10;55.40